createdAt,value
2018-11-23T00:00:26.081Z,19.75
2018-11-23T00:01:29.724Z,26.33
2018-11-23T00:02:33.373Z,22.15
2018-11-23T00:03:36.985Z,20.65
2018-11-23T00:04:40.905Z,19.87
2018-11-23T00:05:44.550Z,22.73
2018-11-23T00:07:03.289Z,20.08
2018-11-23T00:08:06.993Z,18.85
2018-11-23T00:09:10.602Z,20.60
2018-11-23T00:10:16.524Z,23.05
2018-11-23T00:11:20.140Z,23.52
2018-11-23T00:12:23.752Z,23.55
2018-11-23T00:13:27.364Z,24.77
2018-11-23T00:14:31.129Z,20.10
2018-11-23T00:15:34.791Z,22.65
2018-11-23T00:16:38.606Z,21.23
2018-11-23T00:17:42.222Z,20.45
2018-11-23T00:18:45.869Z,20.23
2018-11-23T00:19:49.509Z,30.30
2018-11-23T00:20:53.149Z,22.27
2018-11-23T00:21:56.899Z,35.25
2018-11-23T00:23:00.516Z,21.50
2018-11-23T00:24:04.149Z,25.08
2018-11-23T00:25:09.451Z,34.48
2018-11-23T00:26:13.069Z,76.65
2018-11-23T00:27:16.811Z,27.98
2018-11-23T00:28:20.460Z,28.47
2018-11-23T00:29:24.092Z,50.65
2018-11-23T00:30:29.143Z,24.70
2018-11-23T00:31:32.847Z,28.60
2018-11-23T00:32:36.501Z,31.30
2018-11-23T00:33:40.126Z,34.55
2018-11-23T00:34:43.804Z,31.73
2018-11-23T00:35:47.560Z,23.18
2018-11-23T00:36:51.624Z,32.05
2018-11-23T00:37:55.809Z,21.80
2018-11-23T00:38:59.468Z,26.62
2018-11-23T00:40:03.182Z,25.25
2018-11-23T00:41:06.939Z,25.35
2018-11-23T00:42:10.795Z,24.23
2018-11-23T00:43:14.441Z,23.35
2018-11-23T00:44:18.095Z,24.37
2018-11-23T00:45:22.316Z,23.45
2018-11-23T00:46:26.016Z,22.45
2018-11-23T00:47:29.684Z,25.77
2018-11-23T00:48:33.318Z,22.35
2018-11-23T00:49:36.963Z,22.98
2018-11-23T00:50:40.581Z,25.55
2018-11-23T00:51:44.268Z,24.23
2018-11-23T00:52:48.337Z,24.90
2018-11-23T00:53:52.008Z,24.37
2018-11-23T00:54:55.653Z,24.37
2018-11-23T00:55:59.301Z,24.87
2018-11-23T00:57:02.953Z,26.82
2018-11-23T00:58:06.568Z,26.57
2018-11-23T00:59:10.199Z,23.73
2018-11-23T01:00:16.470Z,24.60
2018-11-23T01:01:20.239Z,25.17
2018-11-23T01:02:23.904Z,24.07
2018-11-23T01:03:27.579Z,26.33
2018-11-23T01:04:31.591Z,25.62
2018-11-23T01:05:35.243Z,25.60
2018-11-23T01:06:38.887Z,26.17
2018-11-23T01:07:43.147Z,26.23
2018-11-23T01:08:46.769Z,27.37
2018-11-23T01:09:50.403Z,25.20
2018-11-23T01:10:54.053Z,25.30
2018-11-23T01:11:57.749Z,26.40
2018-11-23T01:13:01.381Z,25.65
2018-11-23T01:14:05.184Z,28.47
2018-11-23T01:15:09.426Z,28.05
2018-11-23T01:16:13.061Z,26.57
2018-11-23T01:17:16.704Z,26.20
2018-11-23T01:18:20.327Z,26.48
2018-11-23T01:19:23.929Z,26.20
2018-11-23T01:20:28.098Z,27.62
2018-11-23T01:21:31.716Z,26.02
2018-11-23T01:22:35.344Z,26.27
2018-11-23T01:23:38.966Z,27.32
2018-11-23T01:24:42.597Z,28.90
2018-11-23T01:25:46.294Z,26.50
2018-11-23T01:26:49.960Z,26.90
2018-11-23T01:27:54.472Z,27.42
2018-11-23T01:28:58.130Z,27.62
2018-11-23T01:30:01.789Z,30.20
2018-11-23T01:31:05.442Z,28.92
2018-11-23T01:32:09.178Z,27.80
2018-11-23T01:33:12.838Z,29.50
2018-11-23T01:34:16.477Z,26.10
2018-11-23T01:35:20.145Z,26.45
2018-11-23T01:36:23.890Z,28.52
2018-11-23T01:37:27.542Z,27.67
2018-11-23T01:38:31.203Z,28.12
2018-11-23T01:39:35.028Z,25.70
2018-11-23T01:40:38.812Z,27.00
2018-11-23T01:41:42.387Z,27.75
2018-11-23T01:42:46.513Z,28.98
2018-11-23T01:43:50.225Z,28.55
2018-11-23T01:44:53.844Z,27.65
2018-11-23T01:45:57.523Z,27.70
2018-11-23T01:47:01.140Z,28.80
2018-11-23T01:48:05.029Z,29.20
2018-11-23T01:49:08.693Z,29.25
2018-11-23T01:50:14.532Z,30.70
2018-11-23T01:51:18.389Z,28.65
2018-11-23T01:52:22.025Z,29.85
2018-11-23T01:53:25.692Z,29.50
2018-11-23T01:54:29.462Z,29.98
2018-11-23T01:55:33.040Z,29.80
2018-11-23T01:56:36.736Z,29.37
2018-11-23T01:57:41.109Z,28.45
2018-11-23T01:58:44.735Z,29.72
2018-11-23T01:59:48.420Z,29.32
2018-11-23T02:00:52.100Z,28.90
2018-11-23T02:01:55.825Z,29.10
2018-11-23T02:02:59.437Z,29.15
2018-11-23T02:04:03.060Z,29.27
2018-11-23T02:05:07.164Z,30.02
2018-11-23T02:06:10.742Z,30.00
2018-11-23T02:07:14.388Z,30.12
2018-11-23T02:08:18.040Z,28.95
2018-11-23T02:09:21.673Z,30.45
2018-11-23T02:10:25.316Z,32.15
2018-11-23T02:11:28.977Z,29.82
2018-11-23T02:12:32.640Z,30.10
2018-11-23T02:13:36.285Z,31.10
2018-11-23T02:14:39.981Z,32.10
2018-11-23T02:15:43.619Z,31.17
2018-11-23T02:16:47.337Z,30.95
2018-11-23T02:17:51.315Z,31.85
2018-11-23T02:18:54.929Z,33.55
2018-11-23T02:19:58.621Z,32.00
2018-11-23T02:21:02.272Z,32.03
2018-11-23T02:22:05.931Z,31.48
2018-11-23T02:23:10.372Z,33.30
2018-11-23T02:24:14.185Z,33.78
2018-11-23T02:25:17.896Z,33.13
2018-11-23T02:26:21.538Z,32.45
2018-11-23T02:27:25.253Z,31.02
2018-11-23T02:28:28.936Z,32.23
2018-11-23T02:29:32.647Z,31.07
2018-11-23T02:30:36.458Z,35.10
2018-11-23T02:31:40.060Z,44.67
2018-11-23T02:32:43.989Z,35.03
2018-11-23T02:33:48.129Z,35.05
2018-11-23T02:34:51.988Z,34.73
2018-11-23T02:35:55.643Z,32.55
2018-11-23T02:36:59.363Z,33.78
2018-11-23T02:38:02.994Z,33.30
2018-11-23T02:39:07.644Z,32.50
2018-11-23T02:40:12.504Z,31.93
2018-11-23T02:41:16.156Z,33.13
2018-11-23T02:42:19.897Z,33.63
2018-11-23T02:43:23.720Z,32.45
2018-11-23T02:44:34.192Z,36.13
2018-11-23T02:45:38.119Z,38.67
2018-11-23T02:46:41.756Z,37.03
2018-11-23T02:47:46.072Z,33.67
2018-11-23T02:48:49.710Z,33.18
2018-11-23T02:49:53.334Z,34.73
2018-11-23T02:50:56.945Z,47.85
2018-11-23T02:52:00.557Z,35.00
2018-11-23T02:53:04.249Z,34.15
2018-11-23T02:54:07.834Z,35.92
2018-11-23T02:55:13.584Z,35.55
2018-11-23T02:56:17.539Z,35.30
2018-11-23T02:57:21.163Z,35.55
2018-11-23T02:58:24.796Z,36.60
2018-11-23T02:59:28.443Z,37.90
2018-11-23T03:00:32.091Z,36.55
2018-11-23T03:01:35.718Z,38.20
2018-11-23T03:02:39.512Z,38.17
2018-11-23T03:03:43.171Z,36.08
2018-11-23T03:04:46.771Z,36.80
2018-11-23T03:05:50.471Z,39.50
2018-11-23T03:06:54.091Z,35.68
2018-11-23T03:07:57.780Z,34.13
2018-11-23T03:09:01.390Z,35.50
2018-11-23T03:10:06.108Z,36.00
2018-11-23T03:11:09.692Z,37.10
2018-11-23T03:12:13.285Z,36.98
2018-11-23T03:13:16.960Z,39.33
2018-11-23T03:14:20.572Z,38.40
2018-11-23T03:15:24.149Z,32.50
2018-11-23T03:16:27.756Z,36.50
2018-11-23T03:17:32.016Z,36.60
2018-11-23T03:18:35.613Z,35.20
2018-11-23T03:19:39.235Z,35.95
2018-11-23T03:20:42.869Z,37.35
2018-11-23T03:21:46.468Z,37.42
2018-11-23T03:22:50.245Z,37.83
2018-11-23T03:23:54.285Z,38.17
2018-11-23T03:24:57.904Z,36.38
2018-11-23T03:26:01.599Z,37.70
2018-11-23T03:27:05.241Z,38.08
2018-11-23T03:28:08.876Z,37.00
2018-11-23T03:29:12.476Z,40.50
2018-11-23T03:30:17.951Z,37.17
2018-11-23T03:31:22.020Z,37.03
2018-11-23T03:32:25.645Z,37.10
2018-11-23T03:33:29.297Z,37.05
2018-11-23T03:34:32.941Z,38.95
2018-11-23T03:35:36.602Z,37.53
2018-11-23T03:36:40.217Z,35.92
2018-11-23T03:37:44.915Z,39.50
2018-11-23T03:38:47.854Z,38.33
2018-11-23T03:39:51.472Z,38.08
2018-11-23T03:40:55.100Z,39.35
2018-11-23T03:41:58.730Z,39.10
2018-11-23T03:43:02.502Z,36.80
2018-11-23T03:44:06.236Z,39.45
2018-11-23T03:45:11.193Z,38.08
2018-11-23T03:46:14.842Z,39.78
2018-11-23T03:47:18.580Z,37.30
2018-11-23T03:48:22.252Z,38.15
2018-11-23T03:49:25.869Z,40.73
2018-11-23T03:50:29.578Z,38.55
2018-11-23T03:51:33.752Z,40.03
2018-11-23T03:52:37.607Z,39.38
2018-11-23T03:53:41.210Z,38.65
2018-11-23T03:54:44.833Z,38.17
2018-11-23T03:55:48.470Z,38.28
2018-11-23T03:56:52.190Z,37.53
2018-11-23T03:57:55.801Z,38.73
2018-11-23T03:58:59.473Z,40.78
2018-11-23T04:00:03.585Z,37.42
2018-11-23T04:01:07.338Z,38.58
2018-11-23T04:02:10.963Z,37.40
2018-11-23T04:03:14.609Z,40.48
2018-11-23T04:04:18.230Z,39.30
2018-11-23T04:05:21.890Z,39.10
2018-11-23T04:06:25.529Z,39.48
2018-11-23T04:07:29.194Z,38.65
2018-11-23T04:08:32.820Z,38.98
2018-11-23T04:09:36.528Z,37.67
2018-11-23T04:10:40.174Z,37.75
2018-11-23T04:11:43.786Z,38.42
2018-11-23T04:12:47.640Z,39.53
2018-11-23T04:13:51.450Z,37.13
2018-11-23T04:14:55.198Z,39.18
2018-11-23T04:15:58.826Z,39.30
2018-11-23T04:17:02.510Z,37.03
2018-11-23T04:18:06.260Z,37.00
2018-11-23T04:19:09.898Z,38.85
2018-11-23T04:20:15.704Z,37.45
2018-11-23T04:21:19.335Z,39.38
2018-11-23T04:22:22.961Z,40.00
2018-11-23T04:23:26.580Z,39.63
2018-11-23T04:24:30.217Z,40.78
2018-11-23T04:25:33.952Z,39.20
2018-11-23T04:26:37.532Z,40.58
2018-11-23T04:27:41.579Z,39.83
2018-11-23T04:28:45.229Z,42.95
2018-11-23T04:29:48.933Z,43.13
2018-11-23T04:30:52.533Z,39.88
2018-11-23T04:31:56.474Z,40.23
2018-11-23T04:33:00.094Z,40.20
2018-11-23T04:34:03.697Z,38.92
2018-11-23T04:35:09.194Z,39.58
2018-11-23T04:36:12.798Z,40.67
2018-11-23T04:37:16.389Z,40.50
2018-11-23T04:38:20.128Z,40.40
2018-11-23T04:39:23.773Z,37.95
2018-11-23T04:40:27.402Z,41.10
2018-11-23T04:41:31.057Z,39.90
2018-11-23T04:42:34.696Z,40.65
2018-11-23T04:43:38.386Z,38.92
2018-11-23T04:44:42.022Z,41.13
2018-11-23T04:45:45.701Z,39.67
2018-11-23T04:46:49.348Z,40.95
2018-11-23T04:47:52.949Z,39.63
2018-11-23T04:48:56.644Z,41.20
2018-11-23T04:50:01.303Z,38.70
2018-11-23T04:51:04.081Z,40.33
2018-11-23T04:52:07.865Z,39.40
2018-11-23T04:53:11.464Z,42.15
2018-11-23T04:54:15.450Z,39.42
2018-11-23T04:55:19.089Z,37.85
2018-11-23T04:56:22.827Z,39.92
2018-11-23T04:57:26.573Z,41.28
2018-11-23T04:58:30.232Z,39.98
2018-11-23T04:59:33.998Z,40.63
2018-11-23T05:00:37.644Z,39.73
2018-11-23T05:01:41.244Z,40.58
2018-11-23T05:02:45.646Z,39.27
2018-11-23T05:03:49.287Z,40.50
2018-11-23T05:04:52.917Z,39.08
2018-11-23T05:05:56.545Z,40.15
2018-11-23T05:07:00.200Z,38.90
2018-11-23T05:08:03.844Z,39.60
2018-11-23T05:09:08.809Z,41.40
2018-11-23T05:10:13.659Z,40.35
2018-11-23T05:11:17.256Z,39.23
2018-11-23T05:12:21.284Z,41.80
2018-11-23T05:13:24.939Z,39.15
2018-11-23T05:14:28.552Z,39.73
2018-11-23T05:15:32.196Z,41.85
2018-11-23T05:16:35.920Z,39.40
2018-11-23T05:17:39.866Z,38.67
2018-11-23T05:18:43.512Z,40.25
2018-11-23T05:19:47.184Z,40.90
2018-11-23T05:20:50.805Z,38.35
2018-11-23T05:21:54.441Z,40.95
2018-11-23T05:22:58.075Z,41.20
2018-11-23T05:24:01.748Z,40.17
2018-11-23T05:25:06.054Z,40.00
2018-11-23T05:26:09.677Z,40.60
2018-11-23T05:27:13.337Z,40.15
2018-11-23T05:28:16.933Z,39.05
2018-11-23T05:29:27.391Z,40.45
2018-11-23T05:30:31.051Z,38.83
2018-11-23T05:31:34.700Z,40.75
2018-11-23T05:32:38.686Z,38.78
2018-11-23T05:33:42.279Z,38.55
2018-11-23T05:34:45.870Z,38.70
2018-11-23T05:35:49.489Z,38.33
2018-11-23T05:36:53.140Z,40.20
2018-11-23T05:37:56.751Z,40.65
2018-11-23T05:39:00.496Z,39.83
2018-11-23T05:40:04.436Z,39.35
2018-11-23T05:41:08.175Z,39.40
2018-11-23T05:42:11.807Z,38.15
2018-11-23T05:43:15.446Z,39.03
2018-11-23T05:44:19.056Z,38.90
2018-11-23T05:45:23.006Z,38.88
2018-11-23T05:46:26.653Z,39.00
2018-11-23T05:47:30.267Z,39.15
2018-11-23T05:48:33.871Z,39.75
2018-11-23T05:49:37.577Z,39.50
2018-11-23T05:50:41.260Z,38.83
2018-11-23T05:51:44.900Z,40.38
2018-11-23T05:52:48.537Z,39.65
2018-11-23T05:53:52.276Z,38.13
2018-11-23T05:54:55.942Z,40.40
2018-11-23T05:55:59.582Z,39.42
2018-11-23T05:57:03.270Z,38.38
2018-11-23T05:58:06.920Z,40.78
2018-11-23T05:59:10.601Z,39.85
2018-11-23T06:00:18.385Z,39.25
2018-11-23T06:01:22.304Z,40.33
2018-11-23T06:02:26.445Z,40.67
2018-11-23T06:03:30.175Z,41.73
2018-11-23T06:04:33.818Z,42.08
2018-11-23T06:05:37.418Z,40.73
2018-11-23T06:06:42.443Z,40.25
2018-11-23T06:07:44.787Z,40.23
2018-11-23T06:08:48.481Z,40.00
2018-11-23T06:09:52.064Z,40.28
2018-11-23T06:10:55.726Z,40.12
2018-11-23T06:11:59.496Z,41.48
2018-11-23T06:13:03.108Z,39.78
2018-11-23T06:14:06.711Z,38.90
2018-11-23T06:15:12.404Z,42.48
2018-11-23T06:16:16.019Z,40.52
2018-11-23T06:17:19.776Z,41.55
2018-11-23T06:18:23.377Z,40.40
2018-11-23T06:19:27.105Z,40.03
2018-11-23T06:20:30.857Z,40.75
2018-11-23T06:21:34.586Z,41.65
2018-11-23T06:22:45.670Z,41.60
2018-11-23T06:23:49.308Z,40.83
2018-11-23T06:24:53.029Z,39.58
2018-11-23T06:26:09.959Z,42.62
2018-11-23T06:27:13.557Z,39.08
2018-11-23T06:28:17.172Z,41.15
2018-11-23T06:29:20.787Z,40.43
2018-11-23T06:30:24.483Z,39.35
2018-11-23T06:31:28.100Z,41.23
2018-11-23T06:32:43.425Z,40.90
2018-11-23T06:33:47.920Z,40.12
2018-11-23T06:34:51.585Z,40.38
2018-11-23T06:35:55.186Z,39.78
2018-11-23T06:36:58.947Z,39.98
2018-11-23T06:38:02.638Z,41.45
2018-11-23T06:39:08.410Z,39.90
2018-11-23T06:41:10.900Z,40.10
2018-11-23T06:42:14.506Z,40.20
2018-11-23T06:43:18.269Z,38.83
2018-11-23T06:44:27.569Z,40.90
2018-11-23T06:45:33.719Z,40.40
2018-11-23T06:46:37.352Z,45.92
2018-11-23T06:47:41.233Z,43.05
2018-11-23T06:48:44.849Z,41.02
2018-11-23T06:49:48.497Z,47.67
2018-11-23T06:50:52.131Z,41.15
2018-11-23T06:51:55.748Z,41.58
2018-11-23T06:52:59.362Z,49.88
2018-11-23T06:54:02.985Z,43.02
2018-11-23T06:55:06.899Z,41.75
2018-11-23T06:56:10.536Z,40.95
2018-11-23T06:57:14.171Z,47.05
2018-11-23T06:58:17.777Z,42.50
2018-11-23T06:59:21.397Z,43.80
2018-11-23T07:00:25.088Z,45.15
2018-11-23T07:01:28.735Z,41.48
2018-11-23T07:02:32.354Z,41.20
2018-11-23T07:03:35.973Z,41.35
2018-11-23T07:04:39.707Z,39.95
2018-11-23T07:05:43.309Z,40.78
2018-11-23T07:06:46.965Z,41.70
2018-11-23T07:07:50.592Z,40.20
2018-11-23T07:08:54.415Z,41.13
2018-11-23T07:09:58.023Z,41.37
2018-11-23T07:11:02.902Z,40.12
2018-11-23T07:12:06.499Z,40.20
2018-11-23T07:13:10.265Z,41.75
2018-11-23T07:14:13.920Z,39.42
2018-11-23T07:15:17.516Z,40.28
2018-11-23T07:16:21.160Z,42.10
2018-11-23T07:17:25.519Z,40.83
2018-11-23T07:18:29.372Z,39.67
2018-11-23T07:19:33.079Z,40.60
2018-11-23T07:20:36.693Z,39.15
2018-11-23T07:21:40.372Z,42.70
2018-11-23T07:22:44.269Z,41.77
2018-11-23T07:23:47.929Z,42.10
2018-11-23T07:24:51.648Z,40.05
2018-11-23T07:25:55.294Z,41.00
2018-11-23T07:26:58.952Z,40.98
2018-11-23T07:28:02.657Z,41.83
2018-11-23T07:29:06.362Z,41.63
2018-11-23T07:30:16.300Z,39.75
2018-11-23T07:31:19.940Z,40.95
2018-11-23T07:32:23.576Z,41.68
2018-11-23T07:33:27.265Z,40.83
2018-11-23T07:34:30.931Z,38.67
2018-11-23T07:35:34.676Z,40.58
2018-11-23T07:36:38.327Z,39.60
2018-11-23T07:37:41.991Z,42.45
2018-11-23T07:38:45.723Z,40.52
2018-11-23T07:40:00.867Z,42.38
2018-11-23T07:41:16.057Z,41.23
2018-11-23T07:42:22.664Z,40.12
2018-11-23T07:43:26.359Z,37.67
2018-11-23T07:44:30.080Z,37.78
2018-11-23T07:45:33.744Z,40.25
2018-11-23T07:46:37.600Z,37.90
2018-11-23T07:47:41.222Z,39.35
2018-11-23T07:48:44.899Z,44.40
2018-11-23T07:49:48.528Z,40.65
2018-11-23T07:50:52.294Z,39.35
2018-11-23T07:51:55.888Z,40.10
2018-11-23T07:52:59.537Z,39.50
2018-11-23T07:54:03.193Z,39.70
2018-11-23T07:55:08.899Z,39.75
2018-11-23T07:56:12.525Z,40.30
2018-11-23T07:57:16.179Z,41.77
2018-11-23T07:58:19.862Z,43.35
2018-11-23T07:59:23.554Z,43.02
2018-11-23T08:00:27.714Z,41.18
2018-11-23T08:01:31.358Z,40.90
2018-11-23T08:02:35.131Z,44.85
2018-11-23T08:03:38.768Z,40.98
2018-11-23T08:04:43.202Z,40.52
2018-11-23T08:05:46.868Z,42.25
2018-11-23T08:06:50.692Z,40.88
2018-11-23T08:07:54.308Z,37.15
2018-11-23T08:08:57.930Z,40.60
2018-11-23T08:10:00.853Z,39.75
2018-11-23T08:11:10.890Z,39.53
2018-11-23T08:12:14.535Z,40.40
2018-11-23T08:13:18.153Z,38.83
2018-11-23T08:14:22.247Z,40.05
2018-11-23T08:15:27.070Z,39.18
2018-11-23T08:16:30.651Z,40.20
2018-11-23T08:17:34.281Z,39.83
2018-11-23T08:18:37.904Z,39.63
2018-11-23T08:19:47.231Z,42.30
2018-11-23T08:20:45.151Z,38.53
2018-11-23T08:21:48.820Z,40.52
2018-11-23T08:22:52.473Z,37.90
2018-11-23T08:23:56.492Z,37.95
2018-11-23T08:25:00.281Z,39.50
2018-11-23T08:26:03.885Z,38.95
2018-11-23T08:27:07.488Z,40.03
2018-11-23T08:28:11.147Z,40.58
2018-11-23T08:29:14.777Z,36.60
2018-11-23T08:30:21.444Z,38.23
2018-11-23T08:31:25.110Z,39.23
2018-11-23T08:32:28.802Z,37.33
2018-11-23T08:33:32.404Z,37.98
2018-11-23T08:34:36.044Z,37.70
2018-11-23T08:35:39.704Z,36.85
2018-11-23T08:36:43.440Z,39.20
2018-11-23T08:37:47.052Z,38.65
2018-11-23T08:38:50.789Z,38.92
2018-11-23T08:39:54.413Z,38.75
2018-11-23T08:40:58.049Z,39.55
2018-11-23T08:42:01.650Z,39.15
2018-11-23T08:43:05.444Z,37.35
2018-11-23T08:44:09.137Z,41.15
2018-11-23T08:45:14.178Z,41.23
2018-11-23T08:46:17.840Z,37.25
2018-11-23T08:47:21.501Z,40.38
2018-11-23T08:48:25.129Z,37.63
2018-11-23T08:49:28.760Z,40.88
2018-11-23T08:50:32.424Z,37.75
2018-11-23T08:51:36.137Z,38.63
2018-11-23T08:52:39.773Z,38.38
2018-11-23T08:53:43.417Z,40.83
2018-11-23T08:54:47.796Z,39.73
2018-11-23T08:55:51.523Z,37.55
2018-11-23T08:56:55.197Z,38.23
2018-11-23T08:57:58.921Z,39.88
2018-11-23T08:59:02.556Z,40.33
2018-11-23T09:00:09.810Z,39.67
2018-11-23T09:01:13.448Z,39.20
2018-11-23T09:02:17.144Z,37.60
2018-11-23T09:03:20.768Z,37.67
2018-11-23T09:04:24.466Z,38.33
2018-11-23T09:05:28.116Z,37.70
2018-11-23T09:06:31.722Z,37.93
2018-11-23T09:07:35.372Z,37.58
2018-11-23T09:08:39.013Z,37.55
2018-11-23T09:09:42.677Z,38.35
2018-11-23T09:10:46.336Z,38.40
2018-11-23T09:11:50.071Z,36.45
2018-11-23T09:12:56.319Z,37.58
2018-11-23T09:13:59.908Z,39.10
2018-11-23T09:15:03.562Z,36.58
2018-11-23T09:16:07.546Z,37.30
2018-11-23T09:17:11.164Z,35.85
2018-11-23T09:18:14.783Z,36.15
2018-11-23T09:19:18.476Z,35.90
2018-11-23T09:20:22.368Z,36.03
2018-11-23T09:21:26.092Z,36.68
2018-11-23T09:22:29.943Z,36.65
2018-11-23T09:23:33.605Z,34.85
2018-11-23T09:24:37.265Z,33.42
2018-11-23T09:25:40.919Z,35.25
2018-11-23T09:26:44.557Z,35.05
2018-11-23T09:27:48.228Z,32.50
2018-11-23T09:28:51.849Z,33.10
2018-11-23T09:29:55.529Z,31.55
2018-11-23T09:30:59.204Z,32.80
2018-11-23T09:32:02.871Z,33.53
2018-11-23T09:33:06.512Z,31.75
2018-11-23T09:34:10.304Z,33.55
2018-11-23T09:35:14.154Z,32.83
2018-11-23T09:36:17.790Z,34.10
2018-11-23T09:37:21.508Z,33.23
2018-11-23T09:38:25.173Z,33.88
2018-11-23T09:39:28.804Z,34.40
2018-11-23T09:40:32.484Z,32.45
2018-11-23T09:41:36.196Z,33.00
2018-11-23T09:42:40.672Z,32.55
2018-11-23T09:43:44.334Z,31.33
2018-11-23T09:44:47.959Z,31.70
2018-11-23T09:45:51.642Z,28.60
2018-11-23T09:46:55.546Z,30.35
2018-11-23T09:48:00.562Z,30.23
2018-11-23T09:49:04.562Z,36.45
2018-11-23T09:50:10.816Z,31.87
2018-11-23T09:51:14.480Z,30.55
2018-11-23T09:52:18.300Z,30.37
2018-11-23T09:53:22.003Z,30.15
2018-11-23T09:54:25.599Z,31.60
2018-11-23T09:55:32.903Z,32.28
2018-11-23T09:56:36.714Z,30.23
2018-11-23T09:57:40.581Z,30.72
2018-11-23T09:58:44.253Z,30.00
2018-11-23T09:59:47.932Z,28.85
2018-11-23T10:00:51.894Z,29.70
2018-11-23T10:01:55.564Z,31.17
2018-11-23T10:02:59.677Z,30.60
2018-11-23T10:04:03.280Z,33.38
2018-11-23T10:05:09.429Z,32.05
2018-11-23T10:06:13.031Z,31.82
2018-11-23T10:07:16.660Z,29.60
2018-11-23T10:08:20.459Z,29.20
2018-11-23T10:09:24.140Z,29.37
2018-11-23T10:10:28.838Z,28.00
2018-11-23T10:11:33.595Z,28.75
2018-11-23T10:12:37.842Z,27.87
2018-11-23T10:13:41.643Z,28.27
2018-11-23T10:14:45.285Z,28.75
2018-11-23T10:15:48.928Z,29.80
2018-11-23T10:16:53.062Z,29.67
2018-11-23T10:17:57.028Z,28.80
2018-11-23T10:19:00.746Z,30.92
2018-11-23T10:20:06.094Z,31.65
2018-11-23T10:21:09.849Z,30.60
2018-11-23T10:22:13.458Z,29.37
2018-11-23T10:23:17.061Z,30.82
2018-11-23T10:24:20.748Z,28.80
2018-11-23T10:25:26.269Z,29.25
2018-11-23T10:26:29.902Z,31.07
2018-11-23T10:27:33.557Z,30.68
2018-11-23T10:28:37.169Z,30.95
2018-11-23T10:29:40.824Z,30.65
2018-11-23T10:30:44.617Z,32.38
2018-11-23T10:31:48.314Z,30.82
2018-11-23T10:32:53.181Z,29.80
2018-11-23T10:33:56.836Z,29.77
2018-11-23T10:35:00.471Z,28.60
2018-11-23T10:36:04.114Z,29.72
2018-11-23T10:37:07.723Z,28.87
2018-11-23T10:38:11.436Z,29.40
2018-11-23T10:39:15.680Z,27.67
2018-11-23T10:40:20.672Z,30.02
2018-11-23T10:41:24.290Z,30.23
2018-11-23T10:42:27.944Z,30.80
2018-11-23T10:43:31.559Z,30.05
2018-11-23T10:44:35.145Z,30.40
2018-11-23T10:45:39.007Z,30.20
2018-11-23T10:46:42.637Z,30.77
2018-11-23T10:47:46.859Z,31.42
2018-11-23T10:48:50.499Z,29.90
2018-11-23T10:49:54.563Z,30.40
2018-11-23T10:50:58.238Z,30.72
2018-11-23T10:52:02.045Z,29.80
2018-11-23T10:53:05.791Z,31.05
2018-11-23T10:54:09.424Z,30.27
2018-11-23T10:55:15.472Z,30.25
2018-11-23T10:56:19.065Z,30.15
2018-11-23T10:57:22.709Z,29.52
2018-11-23T10:58:26.348Z,28.77
2018-11-23T10:59:29.978Z,28.95
2018-11-23T11:00:39.093Z,31.10
2018-11-23T11:01:48.154Z,28.95
2018-11-23T11:02:58.417Z,31.07
2018-11-23T11:04:07.552Z,30.95
2018-11-23T11:05:16.658Z,28.98
2018-11-23T11:06:25.827Z,30.43
2018-11-23T11:07:29.489Z,30.00
2018-11-23T11:08:33.209Z,31.37
2018-11-23T11:09:37.354Z,29.72
2018-11-23T11:10:40.994Z,32.13
2018-11-23T11:11:44.632Z,32.20
2018-11-23T11:12:48.261Z,31.50
2018-11-23T11:13:51.958Z,29.95
2018-11-23T11:14:55.592Z,31.87
2018-11-23T11:15:59.267Z,30.65
2018-11-23T11:17:02.921Z,31.40
2018-11-23T11:18:06.659Z,32.10
2018-11-23T11:19:10.281Z,30.77
2018-11-23T11:20:13.962Z,32.03
2018-11-23T11:21:17.579Z,31.82
2018-11-23T11:22:21.187Z,32.67
2018-11-23T11:23:26.540Z,33.08
2018-11-23T11:24:30.211Z,32.03
2018-11-23T11:25:33.803Z,32.53
2018-11-23T11:26:37.424Z,32.00
2018-11-23T11:27:41.277Z,31.60
2018-11-23T11:28:44.932Z,32.13
2018-11-23T11:29:48.685Z,31.93
2018-11-23T11:30:52.338Z,32.30
2018-11-23T11:31:55.979Z,32.55
2018-11-23T11:32:59.633Z,32.40
2018-11-23T11:34:03.275Z,31.42
2018-11-23T11:35:07.541Z,32.78
2018-11-23T11:36:11.244Z,36.45
2018-11-23T11:37:14.936Z,38.17
2018-11-23T11:38:19.111Z,37.05
2018-11-23T11:39:22.728Z,31.45
2018-11-23T11:40:26.411Z,39.85
2018-11-23T11:41:30.017Z,35.80
2018-11-23T11:42:33.626Z,38.53
2018-11-23T11:43:37.918Z,34.40
2018-11-23T11:44:41.700Z,36.13
2018-11-23T11:45:45.401Z,33.85
2018-11-23T11:46:49.041Z,36.73
2018-11-23T11:47:52.706Z,36.63
2018-11-23T11:48:56.462Z,36.53
2018-11-23T11:50:00.118Z,33.58
2018-11-23T11:51:03.838Z,34.53
2018-11-23T11:52:07.409Z,36.30
2018-11-23T11:53:11.047Z,36.05
2018-11-23T11:54:14.668Z,34.70
2018-11-23T11:55:19.707Z,37.70
2018-11-23T11:56:23.324Z,35.30
2018-11-23T11:57:27.075Z,34.73
2018-11-23T11:58:30.801Z,34.18
2018-11-23T11:59:34.509Z,35.25
2018-11-23T12:00:38.131Z,37.48
2018-11-23T12:01:42.549Z,35.00
2018-11-23T12:02:46.582Z,33.73
2018-11-23T12:03:50.242Z,36.85
2018-11-23T12:04:53.867Z,36.45
2018-11-23T12:05:57.607Z,34.92
2018-11-23T12:07:01.305Z,35.83
2018-11-23T12:08:06.556Z,36.25
2018-11-23T12:09:11.181Z,35.78
2018-11-23T12:10:16.978Z,34.05
2018-11-23T12:11:20.840Z,36.55
2018-11-23T12:12:24.546Z,35.33
2018-11-23T12:13:28.243Z,36.03
2018-11-23T12:14:32.099Z,35.05
2018-11-23T12:15:35.745Z,35.90
2018-11-23T12:16:39.396Z,37.25
2018-11-23T12:17:43.384Z,36.55
2018-11-23T12:18:47.169Z,35.70
2018-11-23T12:19:50.877Z,36.58
2018-11-23T12:20:54.513Z,38.00
2018-11-23T12:21:58.353Z,37.80
2018-11-23T12:23:02.155Z,35.73
2018-11-23T12:24:05.939Z,37.48
2018-11-23T12:25:09.934Z,37.35
2018-11-23T12:26:13.595Z,36.25
2018-11-23T12:27:17.545Z,36.70
2018-11-23T12:28:21.571Z,35.17
2018-11-23T12:29:25.173Z,36.20
2018-11-23T12:30:28.833Z,37.63
2018-11-23T12:31:32.447Z,37.95
2018-11-23T12:32:36.097Z,50.52
2018-11-23T12:33:39.802Z,38.50
2018-11-23T12:34:43.702Z,38.15
2018-11-23T12:35:47.465Z,37.33
2018-11-23T12:36:51.146Z,36.03
2018-11-23T12:37:54.785Z,36.10
2018-11-23T12:38:58.513Z,36.13
2018-11-23T12:40:02.537Z,37.00
2018-11-23T12:41:06.162Z,34.03
2018-11-23T12:42:10.022Z,36.63
2018-11-23T12:43:13.712Z,36.05
2018-11-23T12:44:17.325Z,36.55
2018-11-23T12:45:22.551Z,38.17
2018-11-23T12:46:26.554Z,36.30
2018-11-23T12:47:30.284Z,36.65
2018-11-23T12:48:33.964Z,36.63
2018-11-23T12:49:37.749Z,35.30
2018-11-23T12:50:41.411Z,38.60
2018-11-23T12:51:45.078Z,35.52
2018-11-23T12:52:48.754Z,37.75
2018-11-23T12:53:52.398Z,36.68
2018-11-23T12:54:56.028Z,37.88
2018-11-23T12:56:00.313Z,38.95
2018-11-23T12:57:04.024Z,36.35
2018-11-23T12:58:07.683Z,37.45
2018-11-23T12:59:11.895Z,38.58
2018-11-23T13:00:20.466Z,40.10
2018-11-23T13:01:24.192Z,38.38
2018-11-23T13:02:27.941Z,37.88
2018-11-23T13:03:31.565Z,38.85
2018-11-23T13:04:36.191Z,38.00
2018-11-23T13:05:39.889Z,38.80
2018-11-23T13:06:43.526Z,39.38
2018-11-23T13:07:47.206Z,37.60
2018-11-23T13:08:50.941Z,40.05
2018-11-23T13:09:54.919Z,38.63
2018-11-23T13:10:58.570Z,40.67
2018-11-23T13:12:02.479Z,42.98
2018-11-23T13:13:06.838Z,39.95
2018-11-23T13:14:10.689Z,41.30
2018-11-23T13:15:14.424Z,39.60
2018-11-23T13:16:18.088Z,38.80
2018-11-23T13:17:22.309Z,40.28
2018-11-23T13:18:26.295Z,38.33
2018-11-23T13:19:29.937Z,48.75
2018-11-23T13:20:33.556Z,37.83
2018-11-23T13:21:37.171Z,41.58
2018-11-23T13:22:40.773Z,37.05
2018-11-23T13:23:44.461Z,40.52
2018-11-23T13:24:48.323Z,43.85
2018-11-23T13:25:51.960Z,45.60
2018-11-23T13:26:55.623Z,43.95
2018-11-23T13:27:59.589Z,52.95
2018-11-23T13:29:15.627Z,43.13
2018-11-23T13:30:11.751Z,51.98
2018-11-23T13:31:15.486Z,40.58
2018-11-23T13:32:19.130Z,44.42
2018-11-23T13:33:22.738Z,39.92
2018-11-23T13:34:26.487Z,36.75
2018-11-23T13:35:30.510Z,39.67
2018-11-23T13:36:34.202Z,39.88
2018-11-23T13:37:37.792Z,38.35
2018-11-23T13:38:41.442Z,43.33
2018-11-23T13:39:45.167Z,41.60
2018-11-23T13:40:48.875Z,39.90
2018-11-23T13:41:56.013Z,41.20
2018-11-23T13:43:00.733Z,39.42
2018-11-23T13:44:04.577Z,44.25
2018-11-23T13:45:09.672Z,42.17